Аэропорт: Кадала. Чита

ICAO: UIAA

METAR:
2021-04-21 20:30:00
UIAA 212030Z 02005MPS 9999 NSC M00/M15 Q1016 R29/CLRD70 NOSIG RMK QFE704/0938
METAR:
2021-04-21 17:00:00
TAF UIAA 211700Z 2118/2218 02005G10MPS 9999 NSC TEMPO 2118/2218 08003G08MPS